createdAt,value
2022-12-28T00:03:49.491Z,98038.81
2022-12-28T00:08:55.828Z,98046.00
2022-12-28T00:13:59.946Z,98037.81
2022-12-28T00:19:04.798Z,98032.91
2022-12-28T00:24:07.406Z,98034.03
2022-12-28T00:29:09.332Z,98030.94
2022-12-28T00:34:11.243Z,98028.66
2022-12-28T00:39:12.903Z,98010.78
2022-12-28T00:44:14.650Z,98007.88
2022-12-28T00:49:16.444Z,98006.63
2022-12-28T00:54:18.074Z,98011.38
2022-12-28T00:59:19.921Z,98011.78
2022-12-28T01:04:21.657Z,98005.44
2022-12-28T01:09:23.344Z,98008.31
2022-12-28T01:14:25.166Z,98004.19
2022-12-28T01:19:27.703Z,98006.22
2022-12-28T01:24:29.514Z,98005.44
2022-12-28T01:29:35.141Z,98010.75
2022-12-28T01:34:36.896Z,98001.78
2022-12-28T01:39:38.655Z,98000.47
2022-12-28T01:44:44.130Z,97993.03
2022-12-28T01:50:03.362Z,97987.81
2022-12-28T01:55:09.859Z,97969.06
2022-12-28T02:00:14.547Z,97960.38
2022-12-28T02:05:20.303Z,97947.31
2022-12-28T02:10:40.576Z,97949.56
2022-12-28T02:15:45.039Z,97936.44
2022-12-28T02:21:09.519Z,97934.25
2022-12-28T02:26:20.260Z,97932.22
2022-12-28T02:31:33.859Z,97922.66
2022-12-28T02:36:41.658Z,97919.72
2022-12-28T02:41:47.081Z,97906.22
2022-12-28T02:47:09.350Z,97908.91
2022-12-28T02:52:53.482Z,97891.88
2022-12-28T02:58:26.590Z,97886.03
2022-12-28T03:03:40.570Z,97884.34
2022-12-28T03:08:54.212Z,97870.63
2022-12-28T03:14:03.076Z,97863.59
2022-12-28T03:19:27.052Z,97856.16
2022-12-28T03:24:52.895Z,97855.94
2022-12-28T03:30:25.178Z,97854.63
2022-12-28T03:35:38.925Z,97833.31
2022-12-28T03:40:49.446Z,97824.81
2022-12-28T03:45:56.962Z,97822.59
2022-12-28T03:50:59.860Z,97811.22
2022-12-28T03:56:10.560Z,97813.75
2022-12-28T04:01:13.559Z,97816.69
2022-12-28T04:06:18.287Z,97816.03
2022-12-28T04:11:19.984Z,97807.97
2022-12-28T04:16:27.476Z,97818.13
2022-12-28T04:21:29.277Z,97807.13
2022-12-28T04:26:31.505Z,97809.44
2022-12-28T04:31:33.450Z,97801.34
2022-12-28T04:36:44.821Z,97807.53
2022-12-28T04:41:49.562Z,97805.03
2022-12-28T04:46:51.442Z,97805.03
2022-12-28T04:51:53.151Z,97791.34
2022-12-28T04:56:54.825Z,97798.03
2022-12-28T05:01:56.605Z,97781.38
2022-12-28T05:06:58.371Z,97766.03
2022-12-28T05:12:00.094Z,97766.22
2022-12-28T05:17:01.872Z,97762.91
2022-12-28T05:22:03.915Z,97765.53
2022-12-28T05:27:05.660Z,97777.22
2022-12-28T05:32:07.479Z,97773.56
2022-12-28T05:37:09.172Z,97758.63
2022-12-28T05:42:10.945Z,97775.91
2022-12-28T05:47:13.784Z,97785.69
2022-12-28T05:52:15.486Z,97777.81
2022-12-28T05:57:17.114Z,97768.88
2022-12-28T06:02:24.415Z,97758.25
2022-12-28T06:07:26.521Z,97747.03
2022-12-28T06:12:28.174Z,97747.22
2022-12-28T06:17:29.864Z,97750.78
2022-12-28T06:22:31.616Z,97750.34
2022-12-28T06:27:33.288Z,97756.19
2022-12-28T06:32:34.934Z,97751.59
2022-12-28T06:37:36.604Z,97749.34
2022-12-28T06:42:38.230Z,97754.13
2022-12-28T06:47:40.100Z,97759.13
2022-12-28T06:52:42.294Z,97755.16
2022-12-28T06:57:44.053Z,97751.22
2022-12-28T07:02:45.896Z,97757.06
2022-12-28T07:07:47.624Z,97755.56
2022-12-28T07:12:49.256Z,97759.53
2022-12-28T07:17:50.908Z,97749.34
2022-12-28T07:22:54.621Z,97742.47
2022-12-28T07:27:56.397Z,97735.81
2022-12-28T07:32:58.076Z,97733.28
2022-12-28T07:37:59.779Z,97740.78
2022-12-28T07:43:01.449Z,97730.78
2022-12-28T07:48:03.267Z,97727.88
2022-12-28T07:53:05.080Z,97722.47
2022-12-28T07:58:06.748Z,97718.53
2022-12-28T08:03:08.489Z,97725.00
2022-12-28T08:08:10.341Z,97717.09
2022-12-28T08:13:12.016Z,97718.31
2022-12-28T08:18:13.751Z,97725.59
2022-12-28T08:23:15.595Z,97724.53
2022-12-28T08:28:17.293Z,97708.69
2022-12-28T08:33:19.015Z,97703.50
2022-12-28T08:38:20.673Z,97706.81
2022-12-28T08:43:22.434Z,97697.44
2022-12-28T08:48:24.447Z,97693.56
2022-12-28T08:53:26.271Z,97679.19
2022-12-28T08:58:28.024Z,97672.84
2022-12-28T09:03:30.112Z,97664.34
2022-12-28T09:08:32.157Z,97659.34
2022-12-28T09:13:34.852Z,97666.47
2022-12-28T09:18:37.493Z,97665.25
2022-12-28T09:23:40.266Z,97666.94
2022-12-28T09:28:55.767Z,97661.78
2022-12-28T09:39:24.805Z,97650.03
2022-12-28T09:44:32.084Z,97648.81
2022-12-28T09:49:58.795Z,97652.78
2022-12-28T09:55:13.575Z,97647.16
2022-12-28T10:00:43.093Z,97630.63
2022-12-28T10:05:45.297Z,97631.00
2022-12-28T10:10:49.211Z,97622.19
2022-12-28T10:15:52.896Z,97613.78
2022-12-28T10:20:55.937Z,97608.09
2022-12-28T10:25:59.539Z,97606.66
2022-12-28T10:31:12.190Z,97600.28
2022-12-28T10:36:16.171Z,97587.38
2022-12-28T10:41:20.387Z,97578.81
2022-12-28T10:46:24.142Z,97580.09
2022-12-28T10:51:29.559Z,97577.00
2022-12-28T10:56:48.476Z,97579.09
2022-12-28T11:01:50.538Z,97559.41
2022-12-28T11:06:57.752Z,97543.00
2022-12-28T11:12:23.947Z,97546.28
2022-12-28T11:17:30.758Z,97542.69
2022-12-28T11:22:33.790Z,97526.50
2022-12-28T11:27:36.114Z,97527.84
2022-12-28T11:32:43.489Z,97518.94
2022-12-28T11:37:50.100Z,97507.66
2022-12-28T11:42:56.210Z,97509.59
2022-12-28T11:48:36.489Z,97510.09
2022-12-28T11:53:45.058Z,97503.44
2022-12-28T11:59:01.173Z,97491.13
2022-12-28T12:04:05.685Z,97487.56
2022-12-28T12:09:25.896Z,97475.59
2022-12-28T12:14:42.952Z,97447.84
2022-12-28T12:19:50.548Z,97446.00
2022-12-28T12:24:58.791Z,97441.69
2022-12-28T12:30:04.582Z,97435.22
2022-12-28T12:35:07.898Z,97422.31
2022-12-28T12:40:09.650Z,97415.09
2022-12-28T12:45:40.918Z,97415.00
2022-12-28T12:50:42.552Z,97405.84
2022-12-28T12:56:07.603Z,97394.00
2022-12-28T13:01:18.597Z,97388.38
2022-12-28T13:06:24.364Z,97394.00
2022-12-28T13:11:26.726Z,97395.13
2022-12-28T13:16:31.123Z,97384.81
2022-12-28T13:21:44.917Z,97367.09
2022-12-28T13:26:46.603Z,97361.63
2022-12-28T13:31:51.426Z,97361.91
2022-12-28T13:36:58.227Z,97357.28
2022-12-28T13:42:04.431Z,97361.41
2022-12-28T13:47:18.082Z,97357.09
2022-12-28T13:52:28.640Z,97357.38
2022-12-28T13:57:55.774Z,97351.91
2022-12-28T14:02:58.053Z,97350.28
2022-12-28T14:08:00.047Z,97346.44
2022-12-28T14:13:03.936Z,97344.50
2022-12-28T14:18:06.286Z,97333.28
2022-12-28T14:23:23.429Z,97331.81
2022-12-28T14:28:42.472Z,97331.50
2022-12-28T14:34:24.302Z,97327.06
2022-12-28T14:39:35.734Z,97326.47
2022-12-28T14:44:40.464Z,97326.41
2022-12-28T14:49:44.101Z,97332.38
2022-12-28T14:54:49.741Z,97328.50
2022-12-28T15:00:01.121Z,97331.44
2022-12-28T15:05:03.460Z,97331.09
2022-12-28T15:10:05.728Z,97326.13
2022-12-28T15:15:10.153Z,97319.75
2022-12-28T15:20:11.959Z,97313.41
2022-12-28T15:25:13.704Z,97317.22
2022-12-28T15:30:21.640Z,97317.75
2022-12-28T15:35:26.242Z,97318.25
2022-12-28T15:40:28.803Z,97311.63
2022-12-28T15:45:31.723Z,97314.88
2022-12-28T15:50:33.329Z,97306.38
2022-12-28T15:55:35.042Z,97291.53
2022-12-28T16:00:36.799Z,97297.66
2022-12-28T16:05:38.522Z,97292.72
2022-12-28T16:10:40.238Z,97300.31
2022-12-28T16:15:41.888Z,97295.81
2022-12-28T16:20:43.640Z,97290.78
2022-12-28T16:25:51.366Z,97284.34
2022-12-28T16:30:53.479Z,97291.66
2022-12-28T16:35:59.528Z,97280.75
2022-12-28T16:41:01.791Z,97270.66
2022-12-28T16:46:08.494Z,97276.34
2022-12-28T16:51:11.942Z,97278.50
2022-12-28T16:56:13.778Z,97266.91
2022-12-28T17:01:15.698Z,97268.00
2022-12-28T17:06:18.080Z,97255.47
2022-12-28T17:11:19.812Z,97255.97
2022-12-28T17:16:21.593Z,97259.19
2022-12-28T17:21:23.415Z,97257.75
2022-12-28T17:26:25.869Z,97251.41
2022-12-28T17:31:28.086Z,97243.25
2022-12-28T17:36:29.804Z,97247.56
2022-12-28T17:41:31.629Z,97257.28
2022-12-28T17:46:37.737Z,97250.69
2022-12-28T17:51:43.429Z,97256.88
2022-12-28T17:56:45.111Z,97246.91
2022-12-28T18:01:46.839Z,97244.34
2022-12-28T18:06:48.646Z,97241.28
2022-12-28T18:11:50.367Z,97234.34
2022-12-28T18:16:52.246Z,97230.72
2022-12-28T18:21:54.062Z,97236.03
2022-12-28T18:26:55.825Z,97227.91
2022-12-28T18:31:57.666Z,97222.56
2022-12-28T18:36:59.322Z,97219.41
2022-12-28T18:42:02.620Z,97213.94
2022-12-28T18:47:04.509Z,97202.81
2022-12-28T18:52:06.337Z,97204.78
2022-12-28T18:57:08.313Z,97201.63
2022-12-28T19:02:17.516Z,97197.03
2022-12-28T19:07:21.220Z,97202.78
2022-12-28T19:12:22.877Z,97203.03
2022-12-28T19:17:24.624Z,97195.94
2022-12-28T19:22:26.524Z,97183.66
2022-12-28T19:27:28.224Z,97175.72
2022-12-28T19:32:30.562Z,97177.88
2022-12-28T19:37:32.199Z,97173.75
2022-12-28T19:42:33.960Z,97152.97
2022-12-28T19:47:35.718Z,97145.84
2022-12-28T19:52:37.381Z,97143.69
2022-12-28T19:57:39.676Z,97138.59
2022-12-28T20:02:41.782Z,97133.44
2022-12-28T20:07:43.655Z,97120.97
2022-12-28T20:12:45.367Z,97122.63
2022-12-28T20:17:47.461Z,97115.03
2022-12-28T20:22:49.273Z,97105.19
2022-12-28T20:27:50.968Z,97101.66
2022-12-28T20:32:52.664Z,97098.09
2022-12-28T20:37:54.345Z,97104.88
2022-12-28T20:43:14.828Z,97098.03
2022-12-28T20:48:17.323Z,97088.72
2022-12-28T20:53:19.138Z,97089.72
2022-12-28T20:58:20.977Z,97089.41
2022-12-28T21:03:22.684Z,97084.97
2022-12-28T21:08:30.386Z,97077.06
2022-12-28T21:13:32.455Z,97075.84
2022-12-28T21:18:35.578Z,97062.66
2022-12-28T21:23:37.537Z,97068.25
2022-12-28T21:28:39.499Z,97058.22
2022-12-28T21:33:41.923Z,97063.03
2022-12-28T21:38:44.914Z,97055.38
2022-12-28T21:43:46.606Z,97047.28
2022-12-28T21:48:48.366Z,97053.31
2022-12-28T21:53:50.050Z,97045.28
2022-12-28T21:58:52.275Z,97040.06
2022-12-28T22:04:12.801Z,97031.75
2022-12-28T22:09:33.298Z,97029.66
2022-12-28T22:14:34.924Z,97022.97
2022-12-28T22:19:36.828Z,97019.59
2022-12-28T22:24:38.492Z,97016.91
2022-12-28T22:29:40.259Z,97015.34
2022-12-28T22:34:41.860Z,97020.31
2022-12-28T22:39:43.492Z,97001.78
2022-12-28T22:44:45.184Z,97001.56
2022-12-28T22:49:46.893Z,97007.22
2022-12-28T22:54:48.533Z,96996.44
2022-12-28T22:59:50.465Z,96995.34
2022-12-28T23:04:52.115Z,96982.94
2022-12-28T23:09:54.041Z,96983.59
2022-12-28T23:15:14.498Z,96974.03
2022-12-28T23:20:35.828Z,96962.06
2022-12-28T23:25:59.289Z,96956.31
2022-12-28T23:31:01.391Z,96950.06
2022-12-28T23:36:04.178Z,96940.75
2022-12-28T23:41:24.976Z,96941.63
2022-12-28T23:46:26.724Z,96944.88
2022-12-28T23:51:28.426Z,96933.25
2022-12-28T23:56:30.131Z,96935.53
